Time;durP1;ratioP1;P1;durP2;ratioP2;P2;SDS_P1;SDS_P2;PMS_P1;PMS_P2;Temp;Humidity;BMP_temperature;BMP_pressure;BME280_temperature;BME280_humidity;BME280_pressure;Samples;Min_cycle;Max_cycle;Signal;HPM_P1;HPM_P2
2024/01/06 00:00:56;;;;;;;3.60;3.30;;;6.60;99.90;;;;;;5086484;28;20212;-59
2024/01/06 00:03:24;;;;;;;6.73;3.60;;;6.60;99.90;;;;;;5084713;28;20219;-59
2024/01/06 00:05:54;;;;;;;9.03;3.43;;;6.60;99.90;;;;;;5088486;28;20227;-59
2024/01/06 00:08:22;;;;;;;9.70;3.33;;;6.60;99.90;;;;;;5083967;28;20706;-59
2024/01/06 00:10:50;;;;;;;5.70;4.27;;;6.60;99.90;;;;;;5084358;28;20202;-59
2024/01/06 00:13:18;;;;;;;4.93;3.60;;;6.60;99.90;;;;;;5082667;28;20247;-59
2024/01/06 00:15:47;;;;;;;5.53;3.73;;;6.60;99.90;;;;;;5085381;28;20739;-60
2024/01/06 00:18:15;;;;;;;8.20;3.70;;;6.60;99.90;;;;;;5089481;28;20218;-60
2024/01/06 00:20:44;;;;;;;6.47;3.57;;;6.60;99.90;;;;;;5088878;28;20223;-59
2024/01/06 00:23:13;;;;;;;4.27;3.37;;;6.60;99.90;;;;;;5087598;27;20275;-59
2024/01/06 00:25:42;;;;;;;5.93;3.80;;;6.60;99.90;;;;;;5088514;28;20196;-60
2024/01/06 00:28:10;;;;;;;10.47;4.20;;;6.60;99.90;;;;;;5081832;28;20234;-60
2024/01/06 00:30:40;;;;;;;22.13;4.30;;;6.60;99.90;;;;;;5081537;28;20241;-60
2024/01/06 00:33:08;;;;;;;12.07;4.10;;;6.60;99.90;;;;;;5082770;27;20716;-60
2024/01/06 00:35:36;;;;;;;13.30;3.50;;;6.60;99.90;;;;;;5085779;28;20226;-60
2024/01/06 00:38:05;;;;;;;6.17;3.60;;;6.60;99.90;;;;;;5084296;28;20226;-59
2024/01/06 00:40:35;;;;;;;12.33;4.33;;;6.60;99.90;;;;;;5084597;28;20195;-60
2024/01/06 00:43:03;;;;;;;7.80;3.77;;;6.60;99.90;;;;;;5085135;28;20715;-60
2024/01/06 00:45:31;;;;;;;9.30;3.90;;;6.60;99.90;;;;;;5008223;28;20223;-59
2024/01/06 00:47:59;;;;;;;9.77;4.10;;;6.60;99.90;;;;;;4962108;28;20391;-60
2024/01/06 00:50:28;;;;;;;7.00;4.00;;;6.60;99.90;;;;;;4962765;28;20235;-60
2024/01/06 00:52:56;;;;;;;9.67;3.50;;;6.60;99.90;;;;;;4970495;28;20200;-59
2024/01/06 00:55:25;;;;;;;16.30;4.10;;;6.60;99.90;;;;;;4961253;28;20253;-60
2024/01/06 00:57:55;;;;;;;13.83;3.87;;;6.60;99.90;;;;;;4964199;28;20255;-59
2024/01/06 01:00:23;;;;;;;6.30;3.30;;;6.60;99.90;;;;;;4964619;28;20220;-60
2024/01/06 01:02:52;;;;;;;6.57;3.20;;;6.60;99.90;;;;;;4963352;28;20625;-59
2024/01/06 01:05:20;;;;;;;7.47;3.07;;;6.60;99.90;;;;;;4971981;28;20327;-59
2024/01/06 01:07:48;;;;;;;14.93;3.10;;;6.60;99.90;;;;;;5087997;28;20200;-59
2024/01/06 01:10:16;;;;;;;4.60;3.20;;;6.60;99.90;;;;;;5081515;28;20219;-59
2024/01/06 01:12:45;;;;;;;8.90;3.13;;;6.60;99.90;;;;;;5085599;28;20223;-59
2024/01/06 01:15:14;;;;;;;12.53;3.00;;;6.60;99.90;;;;;;5083555;27;20678;-60
2024/01/06 01:17:43;;;;;;;7.50;2.90;;;6.60;99.90;;;;;;5083976;28;20215;-60
2024/01/06 01:20:12;;;;;;;10.93;3.13;;;6.60;99.90;;;;;;5087261;28;20192;-59
2024/01/06 01:22:40;;;;;;;7.37;3.00;;;6.60;99.90;;;;;;5084884;28;20737;-59
2024/01/06 01:25:08;;;;;;;11.30;2.90;;;6.70;99.90;;;;;;5087397;28;20310;-60
2024/01/06 01:27:36;;;;;;;8.30;2.93;;;6.60;99.90;;;;;;5082950;28;20220;-60
2024/01/06 01:30:06;;;;;;;10.10;3.37;;;6.60;99.90;;;;;;5087000;28;20994;-59
2024/01/06 01:32:38;;;;;;;9.17;2.90;;;6.60;99.90;;;;;;5083898;27;20231;-60
2024/01/06 01:35:07;;;;;;;7.23;2.80;;;6.60;99.90;;;;;;5082973;28;20192;-59
2024/01/06 01:37:36;;;;;;;8.70;2.97;;;6.60;99.90;;;;;;5081853;28;20536;-60
2024/01/06 01:40:05;;;;;;;7.37;3.30;;;6.60;99.90;;;;;;5080085;28;20578;-60
2024/01/06 01:42:34;;;;;;;6.17;2.70;;;6.60;99.90;;;;;;5083441;28;20247;-59
2024/01/06 01:45:03;;;;;;;8.87;3.00;;;6.60;99.90;;;;;;5084973;28;20698;-60
2024/01/06 01:47:31;;;;;;;9.60;2.90;;;6.50;99.90;;;;;;5083925;28;20227;-60
2024/01/06 01:50:02;;;;;;;6.33;3.10;;;6.60;99.90;;;;;;5084393;28;20187;-60
2024/01/06 01:52:31;;;;;;;8.90;2.80;;;6.60;99.90;;;;;;5084587;28;20222;-60
2024/01/06 01:55:00;;;;;;;4.40;2.97;;;6.60;99.90;;;;;;5085282;28;20223;-59
2024/01/06 01:57:29;;;;;;;6.17;3.17;;;6.60;99.90;;;;;;5082421;28;20227;-59
2024/01/06 01:59:58;;;;;;;8.60;3.00;;;6.60;99.90;;;;;;5079509;28;20623;-60
2024/01/06 02:02:27;;;;;;;5.50;2.87;;;6.50;99.90;;;;;;5085467;28;20224;-59
2024/01/06 02:04:57;;;;;;;8.23;3.60;;;6.60;99.90;;;;;;5086330;28;20231;-59
2024/01/06 02:07:26;;;;;;;6.10;3.57;;;6.60;99.90;;;;;;5085873;28;20276;-60
2024/01/06 02:09:55;;;;;;;11.03;3.80;;;6.60;99.90;;;;;;5080551;28;20220;-60
2024/01/06 02:12:23;;;;;;;9.83;3.90;;;6.60;99.90;;;;;;5085028;28;20219;-60
2024/01/06 02:14:51;;;;;;;8.37;4.03;;;6.60;99.90;;;;;;5082043;28;20310;-61
2024/01/06 02:17:20;;;;;;;8.33;4.07;;;6.60;99.90;;;;;;5083667;28;20215;-59
2024/01/06 02:19:48;;;;;;;5.53;3.93;;;6.60;99.90;;;;;;5084593;28;20214;-60
2024/01/06 02:22:18;;;;;;;7.23;4.00;;;6.60;99.90;;;;;;5081434;28;20908;-60
2024/01/06 02:24:46;;;;;;;6.37;3.67;;;6.60;99.90;;;;;;5085496;28;20208;-59
2024/01/06 02:27:15;;;;;;;5.83;3.70;;;6.60;99.90;;;;;;5088964;28;20219;-59
2024/01/06 02:29:43;;;;;;;6.00;3.90;;;6.60;99.90;;;;;;5087170;28;20226;-59
2024/01/06 02:32:12;;;;;;;6.03;4.57;;;6.60;99.90;;;;;;5084996;28;20210;-60
2024/01/06 02:34:40;;;;;;;7.17;3.80;;;6.60;99.90;;;;;;5082228;28;20183;-60
2024/01/06 02:37:08;;;;;;;7.30;3.83;;;6.60;99.90;;;;;;5083953;28;20227;-60
2024/01/06 02:39:39;;;;;;;3.80;3.50;;;6.60;99.90;;;;;;5080202;28;20264;-60
2024/01/06 02:42:07;;;;;;;5.63;3.57;;;6.60;99.90;;;;;;5085923;28;20216;-60
2024/01/06 02:44:35;;;;;;;5.63;3.50;;;6.60;99.90;;;;;;5081171;28;20215;-60
2024/01/06 02:47:04;;;;;;;5.33;3.57;;;6.60;99.90;;;;;;5085333;28;20191;-59
2024/01/06 02:49:32;;;;;;;3.77;3.43;;;6.60;99.90;;;;;;5082769;28;20196;-60
2024/01/06 02:52:00;;;;;;;6.10;3.53;;;6.60;99.90;;;;;;5081744;28;20267;-60
2024/01/06 02:54:28;;;;;;;8.33;3.40;;;6.70;99.90;;;;;;5078952;28;20228;-60
2024/01/06 02:56:58;;;;;;;5.90;3.60;;;6.60;99.90;;;;;;5082014;28;20306;-60
2024/01/06 02:59:26;;;;;;;4.57;3.70;;;6.70;99.90;;;;;;5080481;28;20230;-60
2024/01/06 03:01:54;;;;;;;6.93;3.90;;;6.70;99.90;;;;;;5082722;28;20198;-60
2024/01/06 03:04:22;;;;;;;5.40;3.70;;;6.60;99.90;;;;;;5080288;28;20237;-60
2024/01/06 03:06:53;;;;;;;4.87;3.70;;;6.60;99.90;;;;;;5083162;28;20261;-60
2024/01/06 03:09:21;;;;;;;8.40;3.83;;;6.60;99.90;;;;;;5085631;28;20562;-60
2024/01/06 03:11:50;;;;;;;9.00;3.80;;;6.70;99.90;;;;;;5077166;28;20223;-60
2024/01/06 03:14:19;;;;;;;6.20;3.50;;;6.70;99.90;;;;;;5081675;28;20196;-60
2024/01/06 03:16:47;;;;;;;4.30;3.40;;;6.60;99.90;;;;;;5083334;28;20219;-60
2024/01/06 03:19:16;;;;;;;7.80;3.80;;;6.70;99.90;;;;;;5081440;28;20685;-60
2024/01/06 03:21:44;;;;;;;9.13;4.03;;;6.70;99.90;;;;;;5082542;28;20223;-60
2024/01/06 03:24:12;;;;;;;3.60;3.40;;;6.70;99.90;;;;;;5083226;28;20215;-61
2024/01/06 03:26:40;;;;;;;4.53;3.43;;;6.70;99.90;;;;;;5083243;28;20264;-60
2024/01/06 03:29:09;;;;;;;5.07;4.50;;;6.70;99.90;;;;;;5084098;28;20210;-60
2024/01/06 03:31:38;;;;;;;11.40;4.93;;;6.60;99.90;;;;;;5082412;28;20194;-60
2024/01/06 03:34:08;;;;;;;6.20;5.13;;;6.70;99.90;;;;;;5085068;28;20233;-60
2024/01/06 03:36:36;;;;;;;8.90;5.87;;;6.70;99.90;;;;;;5084027;28;20717;-60
2024/01/06 03:39:05;;;;;;;9.87;6.07;;;6.70;99.90;;;;;;5084690;28;20638;-60
2024/01/06 03:41:33;;;;;;;10.00;6.40;;;6.70;99.90;;;;;;5085931;28;20228;-59
2024/01/06 03:44:01;;;;;;;8.60;6.53;;;6.60;99.90;;;;;;5116247;28;20214;-60
2024/01/06 03:46:29;;;;;;;8.70;6.47;;;6.60;99.90;;;;;;5082116;28;20234;-60
2024/01/06 03:48:59;;;;;;;11.23;7.60;;;6.60;99.90;;;;;;5083101;28;20246;-60
2024/01/06 03:51:28;;;;;;;8.90;6.67;;;6.60;99.90;;;;;;5085346;28;20223;-60
2024/01/06 03:53:56;;;;;;;11.50;6.63;;;6.60;99.90;;;;;;5083914;28;20215;-60
2024/01/06 03:56:24;;;;;;;7.87;6.93;;;6.70;99.90;;;;;;5083222;28;20234;-60
2024/01/06 03:58:52;;;;;;;9.47;6.83;;;6.70;99.90;;;;;;5080984;28;20224;-61
2024/01/06 04:01:22;;;;;;;11.30;6.87;;;6.70;99.90;;;;;;5080853;28;20718;-60
2024/01/06 04:03:50;;;;;;;8.67;6.33;;;6.60;99.90;;;;;;5081338;28;20315;-60
2024/01/06 04:06:20;;;;;;;9.93;6.50;;;6.60;99.90;;;;;;5085477;28;20227;-61
2024/01/06 04:08:48;;;;;;;11.20;6.50;;;6.70;99.90;;;;;;5083761;28;20641;-60
2024/01/06 04:11:17;;;;;;;13.07;6.50;;;6.60;99.90;;;;;;5083923;28;20225;-60
2024/01/06 04:13:45;;;;;;;15.67;6.77;;;6.60;99.90;;;;;;5080369;28;20191;-60
2024/01/06 04:16:14;;;;;;;9.43;6.90;;;6.60;99.90;;;;;;5084025;27;20231;-60
2024/01/06 04:18:42;;;;;;;9.20;6.57;;;6.60;99.90;;;;;;5085070;28;20617;-59
2024/01/06 04:21:11;;;;;;;12.40;6.93;;;6.60;99.90;;;;;;5084208;28;20226;-60
2024/01/06 04:23:41;;;;;;;9.40;6.90;;;6.60;99.90;;;;;;5085891;28;20220;-60
2024/01/06 04:26:09;;;;;;;11.07;7.30;;;6.60;99.90;;;;;;5081687;28;20575;-59
2024/01/06 04:28:38;;;;;;;15.37;7.57;;;6.60;99.90;;;;;;5084945;28;20199;-60
2024/01/06 04:31:06;;;;;;;12.17;6.87;;;6.60;99.90;;;;;;5088993;28;20207;-60
2024/01/06 04:33:40;;;;;;;11.77;7.40;;;6.60;99.90;;;;;;5088895;27;20222;-60
2024/01/06 04:36:09;;;;;;;11.83;6.87;;;6.60;99.90;;;;;;5085921;28;20269;-60
2024/01/06 04:38:37;;;;;;;14.87;6.77;;;6.60;99.90;;;;;;5085985;28;20238;-60
2024/01/06 04:41:07;;;;;;;11.83;6.97;;;6.60;99.90;;;;;;5086602;28;20192;-60
2024/01/06 04:43:35;;;;;;;13.00;7.17;;;6.50;99.90;;;;;;5082732;28;20646;-60
2024/01/06 04:46:03;;;;;;;10.13;6.73;;;6.50;99.90;;;;;;5085997;28;20842;-60
2024/01/06 04:48:31;;;;;;;12.10;6.93;;;6.50;99.90;;;;;;5084290;28;20223;-61
2024/01/06 04:51:03;;;;;;;12.67;6.77;;;6.50;99.90;;;;;;5086625;28;20298;-60
2024/01/06 04:53:31;;;;;;;10.23;6.73;;;6.50;99.90;;;;;;5085931;28;20269;-61
2024/01/06 04:55:59;;;;;;;13.47;7.87;;;6.50;99.90;;;;;;5090379;28;20187;-60
2024/01/06 04:58:29;;;;;;;12.60;7.47;;;6.50;99.90;;;;;;5084024;28;20233;-60
2024/01/06 05:00:57;;;;;;;9.73;7.27;;;6.50;99.90;;;;;;5084738;28;20575;-60
2024/01/06 05:03:25;;;;;;;12.43;7.67;;;6.50;99.90;;;;;;5084143;28;20220;-61
2024/01/06 05:05:54;;;;;;;14.30;7.63;;;6.50;99.90;;;;;;5086827;28;20219;-61
2024/01/06 05:08:22;;;;;;;14.50;8.00;;;6.40;99.90;;;;;;5081365;28;20192;-60
2024/01/06 05:10:52;;;;;;;13.07;7.70;;;6.40;99.90;;;;;;5085586;28;20191;-61
2024/01/06 05:13:21;;;;;;;14.63;7.27;;;6.40;99.90;;;;;;5088149;28;20666;-60
2024/01/06 05:15:50;;;;;;;14.40;7.87;;;6.40;99.90;;;;;;5084837;28;20669;-60
2024/01/06 05:18:19;;;;;;;12.00;7.40;;;6.40;99.90;;;;;;5084995;28;20220;-60
2024/01/06 05:20:47;;;;;;;19.07;8.00;;;6.40;99.90;;;;;;5084865;28;20227;-61
2024/01/06 05:23:15;;;;;;;11.03;8.17;;;6.40;99.90;;;;;;5084711;28;20198;-60
2024/01/06 05:25:43;;;;;;;14.37;7.87;;;6.40;99.90;;;;;;5086266;28;20188;-60
2024/01/06 05:28:12;;;;;;;19.47;8.00;;;6.40;99.90;;;;;;5086225;28;20728;-60
2024/01/06 05:30:40;;;;;;;13.70;7.57;;;6.40;99.90;;;;;;5086316;28;20585;-60
2024/01/06 05:33:13;;;;;;;16.70;7.83;;;6.40;99.90;;;;;;5083809;28;20235;-60
2024/01/06 05:35:42;;;;;;;13.97;7.43;;;6.40;99.90;;;;;;5086860;28;20245;-60
2024/01/06 05:38:11;;;;;;;13.50;7.53;;;6.30;99.90;;;;;;5087389;28;20284;-60
2024/01/06 05:40:39;;;;;;;13.07;7.90;;;6.30;99.90;;;;;;5085216;28;20209;-60
2024/01/06 05:43:07;;;;;;;15.70;7.80;;;6.30;99.90;;;;;;5088414;28;20245;-60
2024/01/06 05:45:37;;;;;;;20.17;8.50;;;6.30;99.90;;;;;;5086916;28;20231;-60
2024/01/06 05:48:09;;;;;;;13.67;8.23;;;6.30;99.90;;;;;;5082872;28;20211;-61
2024/01/06 05:50:40;;;;;;;16.40;8.50;;;6.30;99.90;;;;;;5085651;28;20645;-60
2024/01/06 05:53:09;;;;;;;19.00;8.23;;;6.30;99.90;;;;;;5085864;28;20203;-60
2024/01/06 05:55:38;;;;;;;14.80;8.17;;;6.30;99.90;;;;;;5082971;28;20207;-60
2024/01/06 05:58:06;;;;;;;14.67;7.77;;;6.20;99.90;;;;;;5084749;28;20228;-60
2024/01/06 06:00:34;;;;;;;14.20;7.57;;;6.20;99.90;;;;;;5084331;28;20216;-60
2024/01/06 06:03:03;;;;;;;12.93;7.80;;;6.20;99.90;;;;;;5082158;27;20267;-60
2024/01/06 06:05:31;;;;;;;17.70;8.20;;;6.20;99.90;;;;;;5086556;28;20677;-60
2024/01/06 06:08:01;;;;;;;18.30;8.27;;;6.20;99.90;;;;;;5083432;28;20222;-61
2024/01/06 06:10:40;;;;;;;14.23;8.10;;;6.20;99.90;;;;;;4960669;28;20298;-60
2024/01/06 06:13:10;;;;;;;19.90;9.33;;;6.20;99.90;;;;;;4980871;28;20243;-60
2024/01/06 06:15:39;;;;;;;17.90;8.03;;;6.20;99.90;;;;;;4980061;28;20244;-60
2024/01/06 06:18:07;;;;;;;14.00;8.27;;;6.20;99.90;;;;;;5035327;28;20273;-60
2024/01/06 06:20:36;;;;;;;15.97;8.10;;;6.20;99.90;;;;;;5082947;28;20303;-60
2024/01/06 06:23:05;;;;;;;13.93;8.73;;;6.20;99.90;;;;;;5081057;28;20191;-60
2024/01/06 06:25:34;;;;;;;14.50;8.13;;;6.20;99.90;;;;;;5081484;28;20317;-60
2024/01/06 06:28:03;;;;;;;17.77;8.37;;;6.20;99.90;;;;;;5084989;28;20237;-60
2024/01/06 06:30:31;;;;;;;16.90;7.60;;;6.20;99.90;;;;;;5077623;28;20599;-60
2024/01/06 06:33:00;;;;;;;12.87;6.23;;;6.20;99.90;;;;;;5083225;28;20220;-60
2024/01/06 06:35:28;;;;;;;16.43;6.33;;;6.10;99.90;;;;;;5083682;28;20223;-60
2024/01/06 06:37:56;;;;;;;9.37;6.37;;;6.00;99.90;;;;;;5082794;28;20677;-60
2024/01/06 06:40:26;;;;;;;10.93;6.43;;;5.90;99.90;;;;;;5082753;28;20227;-60
2024/01/06 06:42:55;;;;;;;14.50;7.03;;;5.90;99.90;;;;;;5081746;28;20215;-59
2024/01/06 06:45:23;;;;;;;18.67;7.67;;;5.90;99.90;;;;;;5083556;28;20350;-60
2024/01/06 06:47:51;;;;;;;15.70;7.50;;;5.90;99.90;;;;;;5084679;28;20264;-60
2024/01/06 06:50:20;;;;;;;19.30;7.77;;;5.90;99.90;;;;;;5084006;27;20192;-60
2024/01/06 06:52:49;;;;;;;12.80;7.93;;;5.90;99.90;;;;;;5081623;28;20539;-60
2024/01/06 06:55:17;;;;;;;12.30;7.63;;;5.90;99.90;;;;;;5085602;28;20234;-60
2024/01/06 06:57:47;;;;;;;15.03;8.20;;;5.90;99.90;;;;;;5082313;28;20226;-60
2024/01/06 07:00:17;;;;;;;13.57;7.97;;;5.90;99.90;;;;;;5079880;28;20225;-60
2024/01/06 07:02:45;;;;;;;20.37;8.80;;;5.90;99.90;;;;;;5083556;28;20215;-59
2024/01/06 07:05:13;;;;;;;16.00;8.03;;;5.90;99.90;;;;;;5081783;28;20282;-60
2024/01/06 07:07:44;;;;;;;14.63;7.50;;;5.90;99.90;;;;;;5082384;28;20216;-60
2024/01/06 07:10:12;;;;;;;13.47;7.80;;;5.90;99.90;;;;;;5084347;28;20573;-60
2024/01/06 07:12:41;;;;;;;12.87;7.80;;;5.80;99.90;;;;;;5082513;28;20718;-60
2024/01/06 07:15:11;;;;;;;22.33;8.00;;;5.80;99.90;;;;;;5084831;28;20222;-60
2024/01/06 07:17:39;;;;;;;14.60;8.23;;;5.80;99.90;;;;;;5088472;28;20224;-60
2024/01/06 07:20:09;;;;;;;16.37;7.83;;;5.70;99.90;;;;;;5083809;28;20973;-58
2024/01/06 07:22:37;;;;;;;19.20;8.80;;;5.70;99.90;;;;;;5084128;28;20546;-60
2024/01/06 07:25:07;;;;;;;13.93;8.53;;;5.70;99.90;;;;;;5078229;28;20223;-60
2024/01/06 07:27:35;;;;;;;17.03;8.93;;;5.70;99.90;;;;;;5083243;28;20580;-60
2024/01/06 07:30:04;;;;;;;15.73;8.73;;;5.70;99.90;;;;;;5083179;28;20764;-60
2024/01/06 07:32:34;;;;;;;17.80;8.93;;;5.70;99.90;;;;;;5081963;28;20239;-60
2024/01/06 07:35:03;;;;;;;17.13;8.70;;;5.70;99.90;;;;;;5085714;28;20195;-61
2024/01/06 07:37:35;;;;;;;15.70;8.33;;;5.70;99.90;;;;;;5087001;28;20222;-60
2024/01/06 07:40:03;;;;;;;18.03;8.77;;;5.70;99.90;;;;;;5088577;28;20315;-60
2024/01/06 07:42:31;;;;;;;12.17;8.33;;;5.70;99.90;;;;;;5084411;28;20269;-61
2024/01/06 07:45:00;;;;;;;19.53;9.57;;;5.70;99.90;;;;;;5083606;28;20216;-60
2024/01/06 07:47:28;;;;;;;21.20;9.27;;;5.70;99.90;;;;;;5077437;28;20243;-60
2024/01/06 07:49:58;;;;;;;19.23;9.00;;;5.80;99.90;;;;;;5082170;28;20242;-60
2024/01/06 07:52:26;;;;;;;20.33;10.00;;;5.70;99.90;;;;;;5083742;28;20219;-60
2024/01/06 07:54:55;;;;;;;16.50;9.30;;;5.70;99.90;;;;;;5083596;28;20602;-60
2024/01/06 07:57:24;;;;;;;18.33;10.10;;;5.80;99.90;;;;;;5082125;28;20734;-60
2024/01/06 07:59:52;;;;;;;22.30;10.13;;;5.80;99.90;;;;;;5082775;28;20235;-60
2024/01/06 08:02:21;;;;;;;19.90;10.20;;;5.70;99.90;;;;;;5084704;28;20199;-60
2024/01/06 08:04:49;;;;;;;21.33;9.53;;;5.70;99.90;;;;;;5085148;28;20272;-60
2024/01/06 08:07:19;;;;;;;24.40;9.60;;;5.70;99.90;;;;;;5090909;28;20302;-60
2024/01/06 08:09:48;;;;;;;20.30;10.13;;;5.70;99.90;;;;;;5083470;28;20260;-60
2024/01/06 08:12:16;;;;;;;20.73;10.73;;;5.70;99.90;;;;;;5086929;28;20301;-60
2024/01/06 08:14:44;;;;;;;21.07;10.77;;;5.70;99.90;;;;;;5083955;28;20269;-60
2024/01/06 08:17:13;;;;;;;21.57;10.43;;;5.70;99.90;;;;;;5085390;28;20199;-60
2024/01/06 08:19:46;;;;;;;24.10;10.57;;;5.70;99.90;;;;;;5088854;28;20223;-60
2024/01/06 08:22:15;;;;;;;22.37;10.83;;;5.70;99.90;;;;;;5087457;28;20257;-60
2024/01/06 08:24:44;;;;;;;25.93;12.20;;;5.70;99.90;;;;;;5080789;28;20608;-60
2024/01/06 08:27:12;;;;;;;22.40;11.67;;;5.60;99.90;;;;;;5087602;28;20623;-60
2024/01/06 08:29:41;;;;;;;23.73;12.23;;;5.60;99.90;;;;;;5085504;28;20302;-60
2024/01/06 08:32:10;;;;;;;19.70;11.00;;;5.60;99.90;;;;;;5087252;28;20672;-59
2024/01/06 08:34:38;;;;;;;22.67;11.80;;;5.60;99.90;;;;;;5088425;28;20191;-60
2024/01/06 08:37:06;;;;;;;22.60;11.07;;;5.70;99.90;;;;;;5086875;28;20226;-60
2024/01/06 08:39:35;;;;;;;20.17;11.23;;;5.70;99.90;;;;;;5087773;28;20223;-60
2024/01/06 08:42:05;;;;;;;22.80;11.73;;;5.70;99.90;;;;;;5088402;27;20313;-59
2024/01/06 08:44:33;;;;;;;24.60;11.23;;;5.70;99.90;;;;;;5085916;28;20233;-60
2024/01/06 08:47:02;;;;;;;21.10;10.37;;;5.60;99.90;;;;;;5087155;28;20195;-61
2024/01/06 08:49:31;;;;;;;16.70;10.47;;;5.60;99.90;;;;;;5084283;28;20307;-60
2024/01/06 08:51:59;;;;;;;21.53;11.40;;;5.50;99.90;;;;;;5086473;28;20214;-60
2024/01/06 08:54:28;;;;;;;15.60;10.77;;;5.50;99.90;;;;;;5086773;28;20219;-60
2024/01/06 08:56:56;;;;;;;15.40;10.60;;;5.60;99.90;;;;;;5088386;28;20313;-60
2024/01/06 08:59:26;;;;;;;21.73;10.40;;;5.50;99.90;;;;;;5085611;27;20713;-60
2024/01/06 09:01:55;;;;;;;20.03;11.17;;;5.50;99.90;;;;;;5086210;28;20199;-60
2024/01/06 09:04:24;;;;;;;19.63;11.30;;;5.50;99.90;;;;;;5085848;28;20630;-60
2024/01/06 09:06:52;;;;;;;18.93;11.40;;;5.50;99.90;;;;;;5083102;28;20221;-61
2024/01/06 09:09:20;;;;;;;17.73;11.17;;;5.50;99.90;;;;;;5086596;28;20223;-60
2024/01/06 09:11:49;;;;;;;21.30;11.73;;;5.50;99.90;;;;;;5084976;28;20224;-60
2024/01/06 09:14:19;;;;;;;18.40;11.63;;;5.60;99.90;;;;;;5086387;28;20194;-60
2024/01/06 09:16:48;;;;;;;16.33;11.47;;;5.50;99.90;;;;;;5083632;28;20200;-60
2024/01/06 09:19:17;;;;;;;14.87;10.03;;;5.60;99.90;;;;;;5085486;28;20234;-61
2024/01/06 09:21:45;;;;;;;16.30;10.30;;;5.50;99.90;;;;;;5083184;28;20215;-60
2024/01/06 09:24:13;;;;;;;17.00;10.73;;;5.50;99.90;;;;;;5086654;28;20266;-60
2024/01/06 09:26:42;;;;;;;13.57;10.63;;;5.50;99.90;;;;;;5082860;28;20593;-60
2024/01/06 09:29:10;;;;;;;16.63;10.20;;;5.50;99.90;;;;;;5085923;28;20187;-60
2024/01/06 09:31:40;;;;;;;16.87;10.27;;;5.40;99.90;;;;;;5086849;28;20195;-60
2024/01/06 09:34:12;;;;;;;14.77;10.40;;;5.50;99.90;;;;;;5089401;27;20223;-60
2024/01/06 09:36:41;;;;;;;16.90;9.97;;;5.50;99.90;;;;;;5085140;28;20246;-60
2024/01/06 09:39:09;;;;;;;15.37;9.43;;;5.40;99.90;;;;;;5084806;28;20224;-60
2024/01/06 09:41:37;;;;;;;17.67;9.37;;;5.40;99.90;;;;;;5082533;28;20223;-59
2024/01/06 09:44:06;;;;;;;15.70;9.33;;;5.30;99.90;;;;;;5088917;28;20616;-60
2024/01/06 09:46:35;;;;;;;10.37;9.23;;;5.30;99.90;;;;;;5083810;28;20195;-60
2024/01/06 09:49:03;;;;;;;12.57;9.37;;;5.30;99.90;;;;;;5085746;28;20219;-59
2024/01/06 09:51:38;;;;;;;13.53;8.40;;;5.30;99.90;;;;;;5083450;28;20276;-61
2024/01/06 09:54:10;;;;;;;11.40;8.83;;;5.40;99.90;;;;;;5083369;28;20219;-60
2024/01/06 09:56:40;;;;;;;14.67;8.37;;;5.30;99.90;;;;;;5083286;28;20227;-60
2024/01/06 09:59:09;;;;;;;10.40;7.27;;;5.30;99.90;;;;;;5084527;27;20700;-60
2024/01/06 10:01:37;;;;;;;8.60;6.67;;;5.30;99.90;;;;;;5084389;28;20217;-60
2024/01/06 10:04:05;;;;;;;7.33;6.63;;;5.30;99.90;;;;;;5084177;28;20237;-60
2024/01/06 10:06:36;;;;;;;9.10;7.50;;;5.30;99.90;;;;;;5087020;28;20223;-60
2024/01/06 10:09:05;;;;;;;11.57;7.30;;;5.30;99.90;;;;;;5087167;28;20284;-60
2024/01/06 10:11:33;;;;;;;10.57;8.50;;;5.30;99.90;;;;;;5084009;28;20227;-60
2024/01/06 10:14:03;;;;;;;18.53;9.73;;;5.20;99.90;;;;;;5082593;28;20294;-59
2024/01/06 10:16:31;;;;;;;15.67;9.23;;;5.20;99.90;;;;;;5085299;28;20226;-59
2024/01/06 10:18:59;;;;;;;11.27;8.10;;;5.10;99.90;;;;;;5086784;28;20226;-60
2024/01/06 10:21:28;;;;;;;10.90;8.13;;;5.20;99.90;;;;;;5084986;28;20262;-60
2024/01/06 10:23:57;;;;;;;10.60;8.07;;;5.20;99.90;;;;;;5083917;28;20243;-60
2024/01/06 10:26:26;;;;;;;10.57;8.73;;;5.20;99.90;;;;;;5081170;28;20265;-60
2024/01/06 10:28:54;;;;;;;12.13;8.97;;;5.30;99.90;;;;;;5084663;28;20294;-59
2024/01/06 10:31:22;;;;;;;15.53;9.33;;;5.30;99.90;;;;;;5081478;27;20216;-60
2024/01/06 10:33:51;;;;;;;13.17;9.13;;;5.40;99.90;;;;;;5085083;28;20303;-60
2024/01/06 10:36:19;;;;;;;12.57;8.93;;;5.40;99.90;;;;;;5086152;28;20230;-60
2024/01/06 10:38:47;;;;;;;17.27;9.13;;;5.40;99.90;;;;;;5087129;27;20823;-60
2024/01/06 10:41:18;;;;;;;12.67;9.57;;;5.50;99.90;;;;;;5084595;28;20214;-61
2024/01/06 10:43:47;;;;;;;16.30;9.63;;;5.40;99.90;;;;;;5081749;28;20194;-60
2024/01/06 10:46:16;;;;;;;13.63;9.27;;;5.40;99.90;;;;;;5077723;28;20266;-60
2024/01/06 10:48:45;;;;;;;14.10;9.40;;;5.40;99.90;;;;;;5078972;27;20223;-60
2024/01/06 10:51:15;;;;;;;15.03;9.37;;;5.40;99.90;;;;;;5082684;28;20203;-60
2024/01/06 10:53:44;;;;;;;13.33;10.20;;;5.40;99.90;;;;;;5081423;28;20682;-60
2024/01/06 10:56:12;;;;;;;14.63;9.73;;;5.30;99.90;;;;;;5085768;28;20271;-60
2024/01/06 10:58:48;;;;;;;19.70;9.70;;;5.30;99.90;;;;;;5083320;28;20195;-60
2024/01/06 11:01:20;;;;;;;18.40;10.33;;;5.30;99.90;;;;;;5085828;28;20234;-60
2024/01/06 11:03:51;;;;;;;13.27;10.17;;;5.30;99.90;;;;;;5083356;28;20227;-60
2024/01/06 11:06:20;;;;;;;14.13;9.70;;;5.30;99.90;;;;;;5080855;28;20228;-60
2024/01/06 11:08:53;;;;;;;16.23;10.43;;;5.20;99.90;;;;;;5080728;28;20240;-60
2024/01/06 11:11:23;;;;;;;19.20;10.10;;;5.20;99.90;;;;;;5080668;28;20191;-60
2024/01/06 11:13:53;;;;;;;21.47;10.50;;;5.20;99.90;;;;;;5081001;28;20194;-60
2024/01/06 11:16:37;;;;;;;15.03;10.10;;;5.20;99.90;;;;;;5080423;27;20226;-61
2024/01/06 11:19:45;;;;;;;16.13;10.57;;;5.20;99.90;;;;;;5083563;28;20214;-60
2024/01/06 11:22:21;;;;;;;24.00;12.00;;;5.20;99.90;;;;;;5082236;28;20631;-60
2024/01/06 11:24:50;;;;;;;19.17;10.47;;;5.20;99.90;;;;;;5082242;28;20226;-60
2024/01/06 11:27:20;;;;;;;15.17;10.13;;;5.20;99.90;;;;;;5083060;28;20635;-60
2024/01/06 11:29:52;;;;;;;18.10;10.27;;;5.10;99.90;;;;;;5079830;28;20223;-60
2024/01/06 11:32:26;;;;;;;14.60;11.17;;;5.10;99.90;;;;;;5079358;28;20665;-60
2024/01/06 11:34:56;;;;;;;15.13;10.07;;;5.10;99.90;;;;;;5084378;28;20199;-60
2024/01/06 11:37:26;;;;;;;17.63;10.10;;;5.20;99.90;;;;;;5083100;28;20338;-59
2024/01/06 11:39:55;;;;;;;16.10;9.80;;;5.10;99.90;;;;;;5084121;27;20219;-60
2024/01/06 11:42:32;;;;;;;12.93;10.07;;;5.10;99.90;;;;;;5084959;28;20251;-60
2024/01/06 11:45:06;;;;;;;16.40;9.93;;;5.10;99.90;;;;;;5081439;28;20302;-60
2024/01/06 11:47:34;;;;;;;16.33;9.67;;;5.20;99.90;;;;;;5078663;28;20277;-60
2024/01/06 11:50:04;;;;;;;16.23;10.70;;;5.30;99.90;;;;;;5082054;28;20198;-59
2024/01/06 11:52:33;;;;;;;16.27;10.67;;;5.30;99.90;;;;;;5082830;28;20219;-60
2024/01/06 11:55:02;;;;;;;20.63;11.20;;;5.20;99.90;;;;;;5084182;28;20219;-60
2024/01/06 11:57:31;;;;;;;17.30;11.80;;;5.20;99.90;;;;;;5086897;28;20226;-60
2024/01/06 11:59:59;;;;;;;21.27;11.20;;;5.20;99.90;;;;;;5083284;28;20325;-60
2024/01/06 12:02:28;;;;;;;14.93;10.27;;;5.30;99.90;;;;;;5085378;28;20232;-60
2024/01/06 12:04:57;;;;;;;15.83;8.87;;;5.20;99.90;;;;;;5081042;28;20230;-60
2024/01/06 12:07:25;;;;;;;13.07;8.83;;;5.20;99.90;;;;;;5081408;27;20225;-60
2024/01/06 12:10:02;;;;;;;12.67;8.87;;;5.20;99.90;;;;;;5082871;27;20219;-60
2024/01/06 12:12:32;;;;;;;12.17;8.23;;;5.20;99.90;;;;;;5082749;28;20207;-60
2024/01/06 12:15:00;;;;;;;14.07;8.77;;;5.20;99.90;;;;;;5080522;28;20243;-60
2024/01/06 12:17:31;;;;;;;12.73;8.00;;;5.30;99.90;;;;;;5083145;28;20223;-60
2024/01/06 12:20:00;;;;;;;14.70;8.40;;;5.30;99.90;;;;;;5079731;28;20731;-60
2024/01/06 12:22:28;;;;;;;12.30;7.90;;;5.30;99.90;;;;;;5080963;28;20227;-60
2024/01/06 12:24:59;;;;;;;12.50;7.33;;;5.30;99.90;;;;;;5080853;28;20802;-60
2024/01/06 12:27:27;;;;;;;11.80;7.07;;;5.40;99.90;;;;;;5084608;28;20322;-60
2024/01/06 12:29:56;;;;;;;8.07;6.73;;;5.40;99.90;;;;;;5083961;28;20230;-60
2024/01/06 12:32:25;;;;;;;9.00;6.40;;;5.40;99.90;;;;;;5076835;28;20240;-60
2024/01/06 12:34:55;;;;;;;11.87;5.90;;;5.50;99.90;;;;;;5083066;28;20183;-60
2024/01/06 12:37:24;;;;;;;10.60;6.53;;;5.50;99.90;;;;;;5081451;28;20223;-60
2024/01/06 12:39:52;;;;;;;7.07;6.20;;;5.50;99.90;;;;;;5084403;28;20727;-59
2024/01/06 12:42:23;;;;;;;11.23;7.00;;;5.50;99.90;;;;;;5079564;28;20226;-60
2024/01/06 12:44:52;;;;;;;9.73;7.40;;;5.50;99.90;;;;;;5086406;28;20231;-60
2024/01/06 12:47:20;;;;;;;11.67;7.03;;;5.50;99.90;;;;;;5083182;28;20283;-60
2024/01/06 12:49:49;;;;;;;11.03;6.87;;;5.50;99.90;;;;;;5083197;28;20199;-60
2024/01/06 12:52:19;;;;;;;9.37;6.80;;;5.60;99.90;;;;;;5084624;28;20226;-60
2024/01/06 12:54:47;;;;;;;9.47;6.60;;;5.60;99.90;;;;;;5086038;28;20220;-60
2024/01/06 12:57:16;;;;;;;7.03;6.33;;;5.60;99.90;;;;;;5081787;28;20608;-60